DAL435 PHLI-KLAX
Flight info
| Callsign | DAL435 |
|---|---|
| Flight time | N/A |
| Altitude | 33000 |
| Route | LIH V15 ZIKAB CLUTS R465 CIVIT R585 AUDIA SNAXX EXERT |
| Aircraft | A21N/M-SDE2E3FGHIRWXY/LB1 |
Departure
| Time | 2026-05-09 06:55 |
|---|---|
| Airport | Lihue Airport (PHLI) |
Arrival
| Time | N/A |
|---|---|
| Airport | Los Angeles International Airport (KLAX) |
| Time | Latitude | Longitude | Altitude | Speed | Heading |
|---|---|---|---|---|---|
| 2026-05-09 05:30 | 21.97795 | -159.34811 | 154 ft | 0 kts | 315° |
| 2026-05-09 06:42 | 21.97792 | -159.34808 | 153 ft | 2 kts | 314° |
| 2026-05-09 06:42 | 21.97779 | -159.34793 | 153 ft | 3 kts | 306° |
| 2026-05-09 06:42 | 21.97768 | -159.34776 | 153 ft | 3 kts | 290° |
| 2026-05-09 06:43 | 21.97762 | -159.34756 | 153 ft | 3 kts | 260° |
| 2026-05-09 06:43 | 21.97765 | -159.34742 | 153 ft | 1 kts | 225° |
| 2026-05-09 06:43 | 21.97765 | -159.34741 | 153 ft | 1 kts | 225° |
| 2026-05-09 06:49 | 21.97747 | -159.34761 | 153 ft | 9 kts | 225° |
| 2026-05-09 06:49 | 21.97689 | -159.34820 | 154 ft | 13 kts | 225° |
| 2026-05-09 06:49 | 21.97628 | -159.34880 | 154 ft | 12 kts | 208° |
| 2026-05-09 06:50 | 21.97567 | -159.34838 | 154 ft | 12 kts | 128° |
| 2026-05-09 06:50 | 21.97500 | -159.34837 | 154 ft | 11 kts | 216° |
| 2026-05-09 06:50 | 21.97433 | -159.34898 | 154 ft | 14 kts | 224° |
| 2026-05-09 06:50 | 21.97346 | -159.34924 | 153 ft | 15 kts | 144° |
| 2026-05-09 06:51 | 21.97340 | -159.34836 | 152 ft | 14 kts | 53° |
| 2026-05-09 06:51 | 21.97363 | -159.34813 | 153 ft | 0 kts | 41° |
| 2026-05-09 06:51 | 21.97364 | -159.34813 | 153 ft | 0 kts | 41° |
| 2026-05-09 06:52 | 21.97365 | -159.34811 | 153 ft | 0 kts | 41° |
| 2026-05-09 06:54 | 21.97375 | -159.34802 | 153 ft | 14 kts | 42° |
| 2026-05-09 06:54 | 21.97614 | -159.34542 | 143 ft | 84 kts | 45° |
| 2026-05-09 06:54 | 21.98192 | -159.33920 | 113 ft | 149 kts | 45° |
| 2026-05-09 06:54 | 21.99051 | -159.33005 | 381 ft | 187 kts | 44° |
| 2026-05-09 06:55 | 22.00071 | -159.32072 | 935 ft | 208 kts | 46° |
| 2026-05-09 06:55 | 22.00682 | -159.30574 | 1319 ft | 234 kts | 82° |
| 2026-05-09 06:55 | 22.00364 | -159.28811 | 1821 ft | 248 kts | 114° |
| 2026-05-09 06:55 | 21.99210 | -159.27420 | 2317 ft | 259 kts | 139° |
| 2026-05-09 06:56 | 21.97756 | -159.26252 | 2809 ft | 262 kts | 141° |
| 2026-05-09 06:56 | 21.96290 | -159.25069 | 3300 ft | 264 kts | 140° |
| 2026-05-09 06:56 | 21.94874 | -159.23767 | 3343 ft | 280 kts | 131° |
| 2026-05-09 06:56 | 21.93938 | -159.21888 | 2886 ft | 279 kts | 103° |
| 2026-05-09 06:57 | 21.93951 | -159.19866 | 3331 ft | 270 kts | 75° |
| 2026-05-09 06:57 | 21.94667 | -159.18005 | 3805 ft | 268 kts | 64° |
| 2026-05-09 06:57 | 21.95511 | -159.16203 | 4201 ft | 279 kts | 63° |
| 2026-05-09 06:57 | 21.96408 | -159.14242 | 4651 ft | 304 kts | 65° |
| 2026-05-09 06:58 | 21.97299 | -159.12085 | 5149 ft | 323 kts | 67° |
| 2026-05-09 06:58 | 21.98163 | -159.09760 | 5656 ft | 345 kts | 69° |
| 2026-05-09 06:58 | 21.99012 | -159.07320 | 6149 ft | 348 kts | 69° |
| 2026-05-09 06:58 | 21.99843 | -159.04861 | 6638 ft | 352 kts | 70° |
| 2026-05-09 06:59 | 22.00665 | -159.02393 | 7114 ft | 357 kts | 70° |
| 2026-05-09 06:59 | 22.01502 | -158.99864 | 7585 ft | 360 kts | 70° |
| 2026-05-09 06:59 | 22.02325 | -158.97299 | 8072 ft | 364 kts | 72° |
| 2026-05-09 06:59 | 22.03013 | -158.94644 | 8563 ft | 370 kts | 75° |
| 2026-05-09 07:00 | 22.03676 | -158.91946 | 9071 ft | 374 kts | 75° |
| 2026-05-09 07:00 | 22.04335 | -158.89216 | 9580 ft | 379 kts | 75° |
| 2026-05-09 07:00 | 22.04999 | -158.86454 | 10085 ft | 383 kts | 75° |
| 2026-05-09 07:00 | 22.05673 | -158.83657 | 10550 ft | 387 kts | 75° |
| 2026-05-09 07:01 | 22.06350 | -158.80840 | 11016 ft | 389 kts | 75° |
| 2026-05-09 07:01 | 22.07031 | -158.78010 | 11494 ft | 391 kts | 75° |
| 2026-05-09 07:01 | 22.07717 | -158.75154 | 11971 ft | 395 kts | 75° |
| 2026-05-09 07:01 | 22.08408 | -158.72274 | 12455 ft | 399 kts | 75° |
| 2026-05-09 07:02 | 22.09105 | -158.69370 | 12965 ft | 401 kts | 75° |
| 2026-05-09 07:02 | 22.09804 | -158.66451 | 13471 ft | 404 kts | 75° |
| 2026-05-09 07:02 | 22.10503 | -158.63534 | 13974 ft | 409 kts | 75° |
| 2026-05-09 07:02 | 22.11218 | -158.60547 | 14430 ft | 413 kts | 75° |
| 2026-05-09 07:03 | 22.11938 | -158.57537 | 14895 ft | 416 kts | 76° |
| 2026-05-09 07:03 | 22.12663 | -158.54501 | 15363 ft | 419 kts | 76° |
| 2026-05-09 07:03 | 22.13391 | -158.51451 | 15841 ft | 422 kts | 76° |
| 2026-05-09 07:03 | 22.14125 | -158.48371 | 16326 ft | 426 kts | 76° |
| 2026-05-09 07:04 | 22.14867 | -158.45257 | 16823 ft | 429 kts | 76° |
| 2026-05-09 07:04 | 22.15611 | -158.42133 | 17320 ft | 431 kts | 76° |
| 2026-05-09 07:04 | 22.16359 | -158.38989 | 17830 ft | 435 kts | 76° |
| 2026-05-09 07:04 | 22.17115 | -158.35806 | 18350 ft | 440 kts | 76° |
| 2026-05-09 07:05 | 22.17879 | -158.32589 | 18814 ft | 443 kts | 76° |
| 2026-05-09 07:05 | 22.18645 | -158.29357 | 19258 ft | 446 kts | 76° |
| 2026-05-09 07:05 | 22.19417 | -158.26099 | 19731 ft | 449 kts | 76° |
| 2026-05-09 07:05 | 22.20195 | -158.22812 | 20200 ft | 454 kts | 76° |
| 2026-05-09 07:06 | 22.20970 | -158.19538 | 20672 ft | 459 kts | 76° |
| 2026-05-09 07:06 | 22.21763 | -158.16181 | 21158 ft | 464 kts | 76° |
| 2026-05-09 07:06 | 22.22562 | -158.12792 | 21646 ft | 468 kts | 76° |
| 2026-05-09 07:06 | 22.23369 | -158.09373 | 22153 ft | 472 kts | 76° |
| 2026-05-09 07:07 | 22.24183 | -158.05920 | 22661 ft | 476 kts | 76° |
| 2026-05-09 07:07 | 22.25002 | -158.02436 | 23179 ft | 480 kts | 76° |
| 2026-05-09 07:07 | 22.25826 | -157.98930 | 23705 ft | 484 kts | 76° |
| 2026-05-09 07:07 | 22.26657 | -157.95392 | 24153 ft | 488 kts | 76° |
| 2026-05-09 07:08 | 22.27492 | -157.91830 | 24598 ft | 491 kts | 76° |
| 2026-05-09 07:08 | 22.28332 | -157.88245 | 25053 ft | 494 kts | 76° |
| 2026-05-09 07:08 | 22.29176 | -157.84643 | 25515 ft | 496 kts | 76° |
| 2026-05-09 07:08 | 22.30022 | -157.81022 | 25983 ft | 498 kts | 75° |
| 2026-05-09 07:09 | 22.30872 | -157.77383 | 26461 ft | 500 kts | 75° |
| 2026-05-09 07:09 | 22.31724 | -157.73734 | 26947 ft | 502 kts | 75° |
| 2026-05-09 07:09 | 22.32577 | -157.70076 | 27440 ft | 503 kts | 75° |
| 2026-05-09 07:09 | 22.33432 | -157.66402 | 27938 ft | 503 kts | 75° |
| 2026-05-09 07:10 | 22.34287 | -157.62727 | 28464 ft | 504 kts | 75° |
| 2026-05-09 07:10 | 22.35139 | -157.59058 | 28987 ft | 503 kts | 75° |
| 2026-05-09 07:10 | 22.35990 | -157.55394 | 29516 ft | 503 kts | 74° |
| 2026-05-09 07:10 | 22.36827 | -157.51780 | 30053 ft | 501 kts | 74° |
| 2026-05-09 07:11 | 22.37672 | -157.48134 | 30535 ft | 499 kts | 74° |
| 2026-05-09 07:11 | 22.38513 | -157.44506 | 31005 ft | 496 kts | 74° |
| 2026-05-09 07:11 | 22.39349 | -157.40887 | 31322 ft | 498 kts | 75° |
| 2026-05-09 07:11 | 22.40185 | -157.37262 | 31522 ft | 501 kts | 75° |
| 2026-05-09 07:12 | 22.41033 | -157.33584 | 31748 ft | 504 kts | 75° |
| 2026-05-09 07:12 | 22.41882 | -157.29895 | 31956 ft | 507 kts | 75° |
| 2026-05-09 07:12 | 22.42736 | -157.26185 | 32167 ft | 510 kts | 75° |
| 2026-05-09 07:12 | 22.43594 | -157.22448 | 32374 ft | 513 kts | 75° |
| 2026-05-09 07:13 | 22.44456 | -157.18695 | 32573 ft | 516 kts | 75° |
| 2026-05-09 07:13 | 22.45323 | -157.14913 | 32774 ft | 519 kts | 75° |
| 2026-05-09 07:13 | 22.46184 | -157.11154 | 32966 ft | 523 kts | 75° |
| 2026-05-09 07:13 | 22.47006 | -157.07560 | 33062 ft | 528 kts | 75° |
| 2026-05-09 07:14 | 22.48791 | -156.99742 | 33128 ft | 543 kts | 75° |
| 2026-05-09 07:14 | 22.50629 | -156.91674 | 33139 ft | 561 kts | 75° |
| 2026-05-09 07:15 | 22.52510 | -156.83398 | 33139 ft | 579 kts | 75° |
| 2026-05-09 07:15 | 22.54455 | -156.74816 | 33134 ft | 592 kts | 75° |
| 2026-05-09 07:16 | 22.56405 | -156.66190 | 33133 ft | 588 kts | 75° |
| 2026-05-09 07:16 | 22.58334 | -156.57637 | 33135 ft | 583 kts | 75° |
| 2026-05-09 07:17 | 22.60255 | -156.49096 | 33135 ft | 585 kts | 75° |
| 2026-05-09 07:17 | 22.62174 | -156.40537 | 33134 ft | 584 kts | 75° |
| 2026-05-09 07:18 | 22.64074 | -156.32045 | 33136 ft | 583 kts | 76° |
| 2026-05-09 07:18 | 22.65984 | -156.23486 | 33141 ft | 584 kts | 76° |
| 2026-05-09 07:19 | 22.67888 | -156.14931 | 33136 ft | 584 kts | 76° |
| 2026-05-09 07:19 | 22.69785 | -156.06381 | 33141 ft | 583 kts | 76° |
| 2026-05-09 07:20 | 22.71676 | -155.97836 | 33138 ft | 584 kts | 76° |
| 2026-05-09 07:20 | 22.73248 | -155.90721 | 33139 ft | 584 kts | 76° |
| 2026-05-09 07:21 | 22.75131 | -155.82166 | 33139 ft | 583 kts | 76° |
| 2026-05-09 07:21 | 22.77316 | -155.72218 | 33142 ft | 584 kts | 76° |
| 2026-05-09 07:22 | 22.78888 | -155.65045 | 33143 ft | 584 kts | 76° |
| 2026-05-09 07:22 | 22.80757 | -155.56487 | 33145 ft | 583 kts | 76° |
| 2026-05-09 07:23 | 22.82609 | -155.47990 | 33146 ft | 583 kts | 76° |
| 2026-05-09 07:23 | 22.84471 | -155.39418 | 33144 ft | 583 kts | 76° |
| 2026-05-09 07:24 | 22.86326 | -155.30861 | 33144 ft | 582 kts | 76° |
| 2026-05-09 07:24 | 22.88174 | -155.22304 | 33146 ft | 582 kts | 76° |
| 2026-05-09 07:25 | 22.90019 | -155.13746 | 33147 ft | 583 kts | 76° |
| 2026-05-09 07:25 | 22.91848 | -155.05237 | 33142 ft | 582 kts | 76° |
| 2026-05-09 07:26 | 22.93679 | -154.96692 | 33146 ft | 582 kts | 76° |
| 2026-05-09 07:26 | 22.95508 | -154.88134 | 33147 ft | 582 kts | 76° |
| 2026-05-09 07:27 | 22.97331 | -154.79581 | 33148 ft | 581 kts | 76° |
| 2026-05-09 07:27 | 22.99145 | -154.71047 | 33152 ft | 581 kts | 76° |
| 2026-05-09 07:28 | 23.01490 | -154.62703 | 33171 ft | 575 kts | 58° |
| 2026-05-09 07:28 | 23.05989 | -154.55617 | 33157 ft | 570 kts | 47° |
| 2026-05-09 07:29 | 23.10563 | -154.48663 | 33151 ft | 569 kts | 52° |
| 2026-05-09 07:29 | 23.14945 | -154.41497 | 33153 ft | 570 kts | 52° |
| 2026-05-09 07:30 | 23.19320 | -154.34291 | 33151 ft | 570 kts | 52° |
| 2026-05-09 07:30 | 23.23683 | -154.27097 | 33152 ft | 568 kts | 52° |
| 2026-05-09 07:31 | 23.28025 | -154.19930 | 33158 ft | 568 kts | 53° |
| 2026-05-09 07:31 | 23.32369 | -154.12749 | 33158 ft | 568 kts | 53° |